createdAt,value
2023-10-26T00:04:52.507Z,5.40
2023-10-26T00:09:55.213Z,4.90
2023-10-26T00:14:57.922Z,4.30
2023-10-26T00:20:00.659Z,5.90
2023-10-26T00:25:04.434Z,4.00
2023-10-26T00:30:10.784Z,5.50
2023-10-26T00:35:13.594Z,3.60
2023-10-26T00:40:16.296Z,4.30
2023-10-26T00:45:19.617Z,5.20
2023-10-26T00:50:22.503Z,5.60
2023-10-26T00:55:26.346Z,7.20
2023-10-26T01:00:29.241Z,5.90
2023-10-26T01:05:32.085Z,6.50
2023-10-26T01:10:36.590Z,4.80
2023-10-26T01:15:39.603Z,5.70
2023-10-26T01:20:45.527Z,9.20
2023-10-26T01:25:56.022Z,6.10
2023-10-26T01:30:59.390Z,5.80
2023-10-26T01:36:03.089Z,5.90
2023-10-26T01:41:06.348Z,5.90
2023-10-26T01:46:09.097Z,6.40
2023-10-26T01:51:12.104Z,8.80
2023-10-26T02:01:17.684Z,8.90
2023-10-26T02:06:20.476Z,7.10
2023-10-26T02:11:23.358Z,7.30
2023-10-26T02:16:26.073Z,9.90
2023-10-26T02:21:28.849Z,7.20
2023-10-26T02:26:31.651Z,7.50
2023-10-26T02:31:34.516Z,13.30
2023-10-26T02:36:37.207Z,7.30
2023-10-26T02:41:39.967Z,11.30
2023-10-26T02:46:42.667Z,7.00
2023-10-26T02:51:45.427Z,6.30
2023-10-26T02:56:48.254Z,7.50
2023-10-26T03:01:51.020Z,7.20
2023-10-26T03:06:54.054Z,8.40
2023-10-26T03:11:57.385Z,8.40
2023-10-26T03:17:00.150Z,10.60
2023-10-26T03:22:02.889Z,8.10
2023-10-26T03:27:05.868Z,9.80
2023-10-26T03:37:11.612Z,6.10
2023-10-26T03:42:14.399Z,6.60
2023-10-26T03:47:19.021Z,8.30
2023-10-26T03:52:23.609Z,9.10
2023-10-26T03:57:26.368Z,6.00
2023-10-26T04:02:29.342Z,9.60
2023-10-26T04:07:32.117Z,10.20
2023-10-26T04:12:35.496Z,5.50
2023-10-26T04:17:38.411Z,5.20
2023-10-26T04:22:41.155Z,6.90
2023-10-26T04:27:43.920Z,6.20
2023-10-26T04:32:46.658Z,8.10
2023-10-26T04:37:49.345Z,5.30
2023-10-26T04:42:52.032Z,6.90
2023-10-26T04:47:54.912Z,45.90
2023-10-26T04:52:57.749Z,10.50
2023-10-26T04:58:04.520Z,9.10
2023-10-26T05:03:07.255Z,6.80
2023-10-26T05:08:10.350Z,7.50
2023-10-26T05:13:13.235Z,9.70
2023-10-26T05:18:15.995Z,9.50
2023-10-26T05:23:18.862Z,14.30
2023-10-26T05:28:21.618Z,11.90
2023-10-26T05:33:24.688Z,15.00
2023-10-26T05:43:30.022Z,11.00
2023-10-26T05:48:34.123Z,10.60
2023-10-26T05:53:36.979Z,11.80
2023-10-26T05:58:39.738Z,20.70
2023-10-26T06:03:42.822Z,11.30
2023-10-26T06:08:46.080Z,11.00
2023-10-26T06:13:49.568Z,14.50
2023-10-26T06:18:52.641Z,11.20
2023-10-26T06:29:05.285Z,14.70
2023-10-26T06:39:10.635Z,15.90
2023-10-26T06:44:13.470Z,19.20
2023-10-26T06:49:29.787Z,14.20
2023-10-26T06:54:43.679Z,12.80
2023-10-26T06:59:47.429Z,15.50
2023-10-26T07:04:50.525Z,14.10
2023-10-26T07:14:56.130Z,11.80
2023-10-26T07:19:58.860Z,12.40
2023-10-26T07:25:03.203Z,12.00
2023-10-26T07:30:07.628Z,14.10
2023-10-26T07:35:10.544Z,18.60
2023-10-26T07:40:28.991Z,13.20
2023-10-26T07:45:33.187Z,10.90
2023-10-26T07:55:41.972Z,14.40
2023-10-26T08:00:45.566Z,13.60
2023-10-26T08:06:01.964Z,13.50
2023-10-26T08:11:14.149Z,11.80
2023-10-26T08:16:40.415Z,10.20
2023-10-26T08:21:39.779Z,12.60
2023-10-26T08:26:42.483Z,11.60
2023-10-26T08:31:45.601Z,14.20
2023-10-26T08:37:02.101Z,9.80
2023-10-26T08:42:13.427Z,14.60
2023-10-26T08:47:20.499Z,10.60
2023-10-26T08:52:24.820Z,13.50
2023-10-26T08:57:27.634Z,9.60
2023-10-26T09:02:30.445Z,14.00
2023-10-26T09:07:33.371Z,18.40
2023-10-26T09:12:36.363Z,9.90
2023-10-26T09:22:42.257Z,11.20
2023-10-26T09:39:44.315Z,9.90
2023-10-26T09:44:47.998Z,7.40
2023-10-26T09:49:51.255Z,11.20
2023-10-26T09:54:55.817Z,8.60
2023-10-26T10:00:00.743Z,9.70
2023-10-26T10:05:04.160Z,10.80
2023-10-26T10:10:10.054Z,7.40
2023-10-26T10:15:36.342Z,6.10
2023-10-26T10:20:38.816Z,9.80
2023-10-26T10:25:50.988Z,9.50
2023-10-26T10:30:59.469Z,10.10
2023-10-26T10:36:06.330Z,12.00
2023-10-26T10:41:10.583Z,8.70
2023-10-26T10:46:21.309Z,9.20
2023-10-26T10:51:33.451Z,9.70
2023-10-26T10:56:41.838Z,8.50
2023-10-26T11:01:45.645Z,11.50
2023-10-26T11:11:54.342Z,7.20
2023-10-26T11:16:57.439Z,6.80
2023-10-26T11:22:00.311Z,5.10
2023-10-26T11:27:07.866Z,35.80
2023-10-26T11:32:21.504Z,19.30
2023-10-26T11:37:27.115Z,10.40
2023-10-26T11:42:57.411Z,7.40
2023-10-26T11:48:12.006Z,6.60
2023-10-26T11:53:14.794Z,8.00
2023-10-26T11:58:19.332Z,9.70
2023-10-26T12:03:22.494Z,6.30
2023-10-26T12:08:25.400Z,7.70
2023-10-26T12:13:28.073Z,6.80
2023-10-26T12:18:30.940Z,6.60
2023-10-26T12:23:33.683Z,6.30
2023-10-26T12:28:36.468Z,4.50
2023-10-26T12:38:45.264Z,10.50
2023-10-26T12:43:48.015Z,9.70
2023-10-26T12:48:50.734Z,8.40
2023-10-26T12:53:53.830Z,8.40
2023-10-26T12:58:57.758Z,7.20
2023-10-26T13:04:00.644Z,8.00
2023-10-26T13:14:08.974Z,5.90
2023-10-26T13:19:11.703Z,8.40
2023-10-26T13:24:14.484Z,8.20
2023-10-26T13:29:17.219Z,8.90
2023-10-26T13:34:19.984Z,8.00
2023-10-26T13:39:23.019Z,9.20
2023-10-26T13:44:25.941Z,12.10
2023-10-26T13:49:29.186Z,9.80
2023-10-26T13:54:31.957Z,9.20
2023-10-26T13:59:38.725Z,8.30
2023-10-26T14:04:41.724Z,13.00
2023-10-26T14:09:45.289Z,10.50
2023-10-26T14:14:48.006Z,6.70
2023-10-26T14:19:50.771Z,10.60
2023-10-26T14:24:53.529Z,14.40
2023-10-26T14:29:56.491Z,11.70
2023-10-26T14:40:02.219Z,31.10
2023-10-26T14:45:05.838Z,17.20
2023-10-26T14:50:08.802Z,13.40
2023-10-26T14:55:11.726Z,16.60
2023-10-26T15:00:14.901Z,16.70
2023-10-26T15:05:18.069Z,38.30
2023-10-26T15:10:26.516Z,14.60
2023-10-26T15:15:31.767Z,16.00
2023-10-26T15:20:35.607Z,32.40
2023-10-26T15:25:38.496Z,25.90
2023-10-26T15:30:41.843Z,31.90
2023-10-26T15:41:02.262Z,22.20
2023-10-26T15:46:05.162Z,30.10
2023-10-26T15:56:11.899Z,41.10
2023-10-26T16:01:14.801Z,33.60
2023-10-26T16:06:19.580Z,49.40
2023-10-26T16:11:22.310Z,106.10
2023-10-26T16:16:25.161Z,82.50
2023-10-26T16:26:30.705Z,34.60
2023-10-26T16:31:33.597Z,31.20
2023-10-26T16:36:36.450Z,21.70
2023-10-26T16:41:39.379Z,20.70
2023-10-26T16:46:42.230Z,75.40
2023-10-26T16:51:45.178Z,34.60
2023-10-26T16:56:48.059Z,54.90
2023-10-26T17:01:50.775Z,42.60
2023-10-26T17:06:55.354Z,25.10
2023-10-26T17:11:58.229Z,41.50
2023-10-26T17:17:01.263Z,22.50
2023-10-26T17:27:09.817Z,64.40
2023-10-26T17:32:12.533Z,23.30
2023-10-26T17:37:15.396Z,24.10
2023-10-26T17:42:18.103Z,30.90
2023-10-26T17:47:23.057Z,21.70
2023-10-26T17:52:26.265Z,17.80
2023-10-26T18:02:33.428Z,25.60
2023-10-26T18:07:36.237Z,16.80
2023-10-26T18:12:39.034Z,23.10
2023-10-26T18:17:41.870Z,44.00
2023-10-26T18:22:44.757Z,30.80
2023-10-26T18:27:47.467Z,20.50
2023-10-26T18:32:51.263Z,17.10
2023-10-26T18:37:54.948Z,15.10
2023-10-26T18:42:57.778Z,16.00
2023-10-26T18:48:01.230Z,22.00
2023-10-26T18:53:04.522Z,15.60
2023-10-26T18:58:11.319Z,14.00
2023-10-26T19:03:19.892Z,16.60
2023-10-26T19:08:24.351Z,28.00
2023-10-26T19:13:29.016Z,26.60
2023-10-26T19:18:32.778Z,22.80
2023-10-26T19:23:35.528Z,28.60
2023-10-26T19:28:39.034Z,19.80
2023-10-26T19:38:46.735Z,33.20
2023-10-26T19:43:49.518Z,23.50
2023-10-26T19:48:52.385Z,20.00
2023-10-26T19:53:55.138Z,26.50
2023-10-26T19:58:57.931Z,22.40
2023-10-26T20:04:01.359Z,21.10
2023-10-26T20:09:06.162Z,24.90
2023-10-26T20:14:09.279Z,23.30
2023-10-26T20:19:12.187Z,22.30
2023-10-26T20:29:18.815Z,23.50
2023-10-26T20:34:21.884Z,23.60
2023-10-26T20:44:27.442Z,28.90
2023-10-26T20:49:30.203Z,27.80
2023-10-26T20:59:38.677Z,24.10
2023-10-26T21:04:43.153Z,27.10
2023-10-26T21:09:46.030Z,27.60
2023-10-26T21:19:52.149Z,34.80
2023-10-26T21:29:57.646Z,37.50
2023-10-26T21:35:00.546Z,38.80
2023-10-26T21:40:03.831Z,26.50
2023-10-26T21:45:08.393Z,15.90
2023-10-26T21:50:11.260Z,23.20
2023-10-26T21:55:15.192Z,21.20
2023-10-26T22:00:21.444Z,31.40
2023-10-26T22:05:24.557Z,27.10
2023-10-26T22:15:30.508Z,20.70
2023-10-26T22:20:36.544Z,19.00
2023-10-26T22:25:39.278Z,17.20
2023-10-26T22:30:42.563Z,19.30
2023-10-26T22:35:45.575Z,18.90
2023-10-26T22:40:48.280Z,19.00
2023-10-26T22:45:51.252Z,23.30
2023-10-26T22:56:01.421Z,18.70
2023-10-26T23:01:07.221Z,21.60
2023-10-26T23:06:10.122Z,16.30
2023-10-26T23:11:12.840Z,19.80
2023-10-26T23:16:15.749Z,25.70
2023-10-26T23:21:18.522Z,20.20
2023-10-26T23:26:21.744Z,15.10
2023-10-26T23:31:24.768Z,15.90
2023-10-26T23:36:27.654Z,15.70
2023-10-26T23:41:30.779Z,15.20
2023-10-26T23:51:36.227Z,15.40
2023-10-26T23:56:38.953Z,16.90
